Time;durP1;ratioP1;P1;durP2;ratioP2;P2;SDS_P1;SDS_P2;PMS_P1;PMS_P2;Temp;Humidity;BMP_temperature;BMP_pressure;BME280_temperature;BME280_humidity;BME280_pressure;Samples;Min_cycle;Max_cycle;Signal;HPM_P1;HPM_P2
2022/10/24 00:02:30;;;;;;;;;;;16.50;99.90;;;15.41;100.00;95743.31;10535884;28;1902;-72
2022/10/24 00:07:33;;;;;;;;;;;16.30;99.90;;;15.49;100.00;95741.00;10512605;28;1696;-74
2022/10/24 00:12:35;;;;;;;;;;;16.30;99.90;;;15.54;100.00;95744.41;10493648;28;1075;-73
2022/10/24 00:17:38;;;;;;;;;;;16.40;99.90;;;14.75;100.00;95755.50;10494631;28;1707;-74
2022/10/24 00:22:41;;;;;;;;;;;16.00;99.90;;;14.31;100.00;95766.84;10494456;28;1918;-74
2022/10/24 00:27:44;;;;;;;;;;;15.50;99.90;;;14.14;100.00;95780.94;10498639;28;1584;-74
2022/10/24 00:32:46;;;;;;;;;;;15.20;99.90;;;14.07;100.00;95802.94;10500877;28;1209;-73
2022/10/24 00:37:49;;;;;;;;;;;15.10;99.90;;;14.03;100.00;95847.84;10533833;28;1791;-74
2022/10/24 00:42:52;;;;;;;;;;;15.00;99.90;;;13.76;100.00;95858.53;10534301;28;1914;-75
2022/10/24 00:47:54;;;;;;;;;;;14.80;99.90;;;13.56;100.00;95843.41;10505162;28;1711;-77
2022/10/24 00:52:57;;;;;;;;;;;14.50;99.90;;;13.50;100.00;95849.97;10505089;28;1719;-77
2022/10/24 00:58:00;;;;;;;;;;;14.30;99.90;;;13.41;100.00;95841.69;10526929;28;1597;-77
2022/10/24 01:03:03;;;;;;;;;;;14.30;99.90;;;13.32;100.00;95816.44;10559037;28;1890;-76
2022/10/24 01:08:05;;;;;;;;;;;14.20;99.90;;;13.32;100.00;95805.63;10548091;28;1620;-77
2022/10/24 01:13:10;;;;;;;;;;;14.10;99.90;;;13.34;100.00;95783.75;10545532;28;1565;-77
2022/10/24 01:18:13;;;;;;;;;;;14.10;99.90;;;13.31;100.00;95787.03;10548411;28;1187;-77
2022/10/24 01:23:15;;;;;;;;;;;14.10;99.90;;;13.28;100.00;95777.59;10541394;28;1914;-76
2022/10/24 01:28:18;;;;;;;;;;;14.10;99.90;;;13.27;100.00;95756.31;10539894;28;1422;-75
2022/10/24 01:33:21;;;;;;;;;;;14.10;99.90;;;13.23;100.00;95735.31;10539811;28;1114;-75
2022/10/24 01:38:23;;;;;;;;;;;14.10;99.90;;;13.26;100.00;95723.09;10545760;28;1648;-75
2022/10/24 01:43:26;;;;;;;;;;;14.00;99.90;;;13.28;100.00;95728.22;10548149;28;1981;-75
2022/10/24 01:48:28;;;;;;;;;;;14.10;99.90;;;13.22;100.00;95720.19;10541596;28;1682;-75
2022/10/24 01:53:31;;;;;;;;;;;14.00;99.90;;;13.24;100.00;95714.50;10541969;28;1826;-76
2022/10/24 01:58:33;;;;;;;;;;;14.00;99.90;;;13.23;100.00;95721.81;10530662;28;1505;-76
2022/10/24 02:03:36;;;;;;;;;;;14.10;99.90;;;13.23;100.00;95729.06;10541581;28;1910;-74
2022/10/24 02:08:39;;;;;;;;;;;14.00;99.90;;;13.22;100.00;95713.97;10536014;28;1710;-75
2022/10/24 02:13:43;;;;;;;;;;;14.00;99.90;;;13.18;100.00;95654.38;10542826;28;1660;-75
2022/10/24 02:18:46;;;;;;;;;;;14.00;99.90;;;13.16;100.00;95628.75;10540338;28;1121;-75
2022/10/24 02:23:49;;;;;;;;;;;13.90;99.90;;;13.10;100.00;95602.94;10540268;28;1914;-74
2022/10/24 02:28:57;;;;;;;;;;;13.90;99.90;;;13.14;100.00;95612.06;10532283;28;1422;-72
2022/10/24 02:34:00;;;;;;;;;;;13.90;99.90;;;13.12;100.00;95606.16;10539742;28;1172;-74
2022/10/24 02:39:02;;;;;;;;;;;14.00;99.90;;;13.09;100.00;95593.22;10538171;28;1688;-72
2022/10/24 02:44:05;;;;;;;;;;;13.90;99.90;;;13.07;100.00;95593.53;10536816;28;1918;-73
2022/10/24 02:49:08;;;;;;;;;;;13.90;99.90;;;13.05;100.00;95590.34;10535821;28;1656;-72
2022/10/24 02:54:10;;;;;;;;;;;13.90;99.90;;;13.03;100.00;95592.50;10537126;28;1888;-73
2022/10/24 02:59:13;;;;;;;;;;;13.90;99.90;;;13.05;100.00;95595.75;10522351;28;1394;-75
2022/10/24 03:04:16;;;;;;;;;;;13.90;99.90;;;13.11;100.00;95601.88;10539495;28;1914;-75
2022/10/24 03:09:19;;;;;;;;;;;13.90;99.90;;;13.09;100.00;95595.94;10537340;28;1639;-73
2022/10/24 03:14:21;;;;;;;;;;;14.00;99.90;;;13.14;100.00;95590.47;10532671;28;1699;-74
2022/10/24 03:19:24;;;;;;;;;;;13.90;99.90;;;13.19;100.00;95599.28;10538173;28;1096;-74
2022/10/24 03:24:27;;;;;;;;;;;13.90;99.90;;;13.19;100.00;95596.59;10530841;28;1918;-73
2022/10/24 03:29:50;;;;;;;;;;;14.00;99.90;;;13.22;100.00;95606.00;10536636;28;1445;-73
2022/10/24 03:34:52;;;;;;;;;;;14.00;99.90;;;13.27;100.00;95622.13;10536996;28;1149;-72
2022/10/24 03:39:55;;;;;;;;;;;14.10;99.90;;;13.33;100.00;95614.75;10528196;28;1512;-74
2022/10/24 03:44:57;;;;;;;;;;;14.10;99.90;;;13.37;100.00;95624.69;10537472;28;1906;-72
2022/10/24 03:50:00;;;;;;;;;;;14.10;99.90;;;13.33;100.00;95610.16;10536144;28;1636;-73
2022/10/24 03:55:03;;;;;;;;;;;14.20;99.90;;;13.41;100.00;95627.56;10536280;28;1461;-73
2022/10/24 04:00:06;;;;;;;;;;;14.20;99.90;;;13.46;100.00;95606.69;10527768;28;1445;-74
2022/10/24 04:05:18;;;;;;;;;;;14.20;99.90;;;13.47;100.00;95634.50;10539200;28;1961;-73
2022/10/24 04:10:21;;;;;;;;;;;14.20;99.90;;;13.55;100.00;95638.41;10536342;28;1118;-76
2022/10/24 04:15:24;;;;;;;;;;;14.40;99.90;;;13.60;100.00;95638.34;10528526;28;1659;-75
2022/10/24 04:20:26;;;;;;;;;;;14.40;99.90;;;13.56;100.00;95648.94;10536118;28;1145;-73
2022/10/24 04:25:29;;;;;;;;;;;14.30;99.90;;;13.59;100.00;95652.94;10532737;28;1977;-76
2022/10/24 04:30:32;;;;;;;;;;;14.40;99.90;;;13.46;100.00;95670.72;10527344;28;1493;-75
2022/10/24 04:35:35;;;;;;;;;;;14.30;99.90;;;13.38;100.00;95674.88;10535555;28;1482;-76
2022/10/24 04:40:37;;;;;;;;;;;14.30;99.90;;;13.30;100.00;95672.84;10535380;28;1203;-74
2022/10/24 04:45:40;;;;;;;;;;;14.20;99.90;;;13.27;100.00;95676.13;10529907;28;1922;-74
2022/10/24 04:50:43;;;;;;;;;;;14.20;99.90;;;13.25;100.00;95670.22;10535215;28;1152;-74
2022/10/24 04:55:45;;;;;;;;;;;14.10;99.90;;;13.21;100.00;95659.19;10521686;28;1833;-73
2022/10/24 05:00:49;;;;;;;;;;;14.10;99.90;;;13.27;100.00;95662.63;10520746;28;1640;-73
2022/10/24 05:05:51;;;;;;;;;;;14.10;99.90;;;13.21;100.00;95663.78;10532569;28;1980;-74
2022/10/24 05:10:54;;;;;;;;;;;14.10;99.90;;;13.28;100.00;95658.03;10534370;28;1140;-73
2022/10/24 05:15:57;;;;;;;;;;;14.10;99.90;;;13.22;100.00;95660.00;10533212;28;1632;-73
2022/10/24 05:20:59;;;;;;;;;;;14.10;99.90;;;13.20;100.00;95662.16;10530865;28;1703;-72
2022/10/24 05:26:03;;;;;;;;;;;14.00;99.90;;;13.21;100.00;95658.41;10532204;28;1196;-73
2022/10/24 05:31:06;;;;;;;;;;;14.10;99.90;;;13.21;100.00;95674.59;10526130;28;1711;-74
2022/10/24 05:36:08;;;;;;;;;;;14.00;99.90;;;13.56;100.00;95675.16;10533763;28;1564;-73
2022/10/24 05:41:11;;;;;;;;;;;14.20;99.90;;;13.88;100.00;95667.06;10540818;28;1906;-74
2022/10/24 05:46:14;;;;;;;;;;;14.50;99.90;;;13.78;100.00;95672.63;10540820;28;1671;-73
2022/10/24 05:51:23;;;;;;;;;;;14.60;99.90;;;13.84;100.00;95687.66;10507981;28;975;-73
2022/10/24 05:56:26;;;;;;;;;;;14.60;99.90;;;13.93;100.00;95691.28;10511101;28;1695;-73
2022/10/24 06:01:30;;;;;;;;;;;14.70;99.90;;;13.90;100.00;95702.66;10541289;28;1906;-71
2022/10/24 06:06:33;;;;;;;;;;;14.80;99.90;;;13.85;100.00;95710.84;10537751;28;1648;-73
2022/10/24 06:11:36;;;;;;;;;;;14.70;99.90;;;13.95;100.00;95708.00;10540377;28;1140;-72
2022/10/24 06:16:38;;;;;;;;;;;14.70;99.90;;;13.91;100.00;95706.16;10532261;28;1632;-72
2022/10/24 06:21:41;;;;;;;;;;;14.80;99.90;;;13.90;100.00;95713.47;10539607;28;1910;-73
2022/10/24 06:26:44;;;;;;;;;;;14.80;99.90;;;14.06;100.00;95711.34;10531756;28;1489;-71
2022/10/24 06:31:46;;;;;;;;;;;14.90;99.90;;;14.03;100.00;95712.72;10534879;28;1134;-73
2022/10/24 06:36:49;;;;;;;;;;;14.90;99.90;;;14.13;100.00;95705.53;10538389;28;1509;-72
2022/10/24 06:41:51;;;;;;;;;;;14.90;99.90;;;13.94;100.00;95708.31;10542890;28;1910;-74
2022/10/24 06:46:54;;;;;;;;;;;14.80;99.90;;;13.77;100.00;95698.03;10534035;28;1651;-72
2022/10/24 06:51:56;;;;;;;;;;;14.80;99.90;;;13.66;100.00;95681.19;10539891;28;1129;-72
2022/10/24 06:56:59;;;;;;;;;;;14.60;99.90;;;13.68;100.00;95672.81;10532573;28;1426;-73
2022/10/24 07:02:02;;;;;;;;;;;14.60;99.90;;;13.62;100.00;95688.28;10535953;28;1905;-72
2022/10/24 07:07:07;;;;;;;;;;;14.50;99.90;;;13.60;100.00;95712.06;10540632;28;1597;-72
2022/10/24 07:12:14;;;;;;;;;;;14.50;99.90;;;13.61;100.00;95712.88;10540529;28;1694;-71
2022/10/24 07:17:17;;;;;;;;;;;14.50;99.90;;;13.61;100.00;95710.97;10535787;28;1627;-72
2022/10/24 07:22:20;;;;;;;;;;;14.50;99.90;;;13.68;100.00;95719.53;10533317;28;1977;-73
2022/10/24 07:27:22;;;;;;;;;;;14.50;99.90;;;13.80;100.00;95724.44;10538779;28;1385;-75
2022/10/24 07:32:25;;;;;;;;;;;14.60;99.90;;;13.85;100.00;95731.66;10538667;28;1121;-75
2022/10/24 07:37:27;;;;;;;;;;;14.60;99.90;;;13.97;100.00;95724.72;10529642;28;1655;-73
2022/10/24 07:42:30;;;;;;;;;;;14.70;99.90;;;13.93;100.00;95723.72;10537180;28;1906;-75
2022/10/24 07:47:33;;;;;;;;;;;14.70;99.90;;;14.01;100.00;95741.16;10533393;28;1631;-73
2022/10/24 07:52:35;;;;;;;;;;;14.80;99.90;;;14.01;100.00;95744.66;10532424;28;1703;-75
2022/10/24 07:57:38;;;;;;;;;;;14.80;99.90;;;14.02;100.00;95732.75;10528580;28;1465;-73
2022/10/24 08:02:41;;;;;;;;;;;14.80;99.90;;;13.98;100.00;95733.63;10535900;28;1914;-73
2022/10/24 08:07:43;;;;;;;;;;;14.70;99.90;;;14.01;100.00;95735.75;10533776;28;1664;-73
2022/10/24 08:13:06;;;;;;;;;;;14.80;99.90;;;14.06;100.00;95741.06;10535973;28;1035;-73
2022/10/24 08:18:14;;;;;;;;;;;14.90;99.90;;;14.07;100.00;95734.56;10521051;28;1683;-73
2022/10/24 08:23:17;;;;;;;;;;;14.80;99.90;;;14.13;100.00;95727.16;10535208;28;1918;-72
2022/10/24 08:28:27;;;;;;;;;;;14.90;99.90;;;14.25;100.00;95720.19;10517030;28;1430;-74
2022/10/24 08:33:29;;;;;;;;;;;15.00;99.90;;;14.40;100.00;95715.59;10543837;28;1145;-72
2022/10/24 08:38:32;;;;;;;;;;;15.00;99.90;;;14.59;100.00;95719.03;10531711;28;1678;-73
2022/10/24 08:43:34;;;;;;;;;;;15.20;99.90;;;14.92;100.00;95714.31;10534195;28;1902;-71
2022/10/24 08:48:37;;;;;;;;;;;15.40;99.90;;;15.07;100.00;95721.31;10536629;28;1148;-72
2022/10/24 08:53:40;;;;;;;;;;;15.60;99.90;;;15.16;100.00;95730.34;10534360;28;1652;-74
2022/10/24 08:58:42;;;;;;;;;;;15.80;99.90;;;15.13;100.00;95733.63;10511041;28;1497;-74
2022/10/24 09:03:46;;;;;;;;;;;15.80;99.90;;;14.96;100.00;95742.41;10534645;28;1922;-74
2022/10/24 09:08:58;;;;;;;;;;;15.90;99.90;;;14.83;100.00;95751.31;10533742;28;1629;-73
2022/10/24 09:14:01;;;;;;;;;;;15.70;99.90;;;14.51;100.00;95771.94;10541121;28;1564;-73
2022/10/24 09:19:04;;;;;;;;;;;15.50;99.90;;;14.51;100.00;95761.13;10542968;28;1026;-74
2022/10/24 09:24:07;;;;;;;;;;;15.40;99.90;;;14.60;100.00;95767.44;10544272;28;1909;-73
2022/10/24 09:29:10;;;;;;;;;;;15.40;99.90;;;14.80;100.00;95762.72;10536519;28;1479;-75
2022/10/24 09:34:12;;;;;;;;;;;15.40;99.90;;;14.80;100.00;95757.31;10542402;28;1120;-75
2022/10/24 09:39:15;;;;;;;;;;;15.40;99.90;;;14.74;100.00;95755.81;10537150;28;1671;-75
2022/10/24 09:44:18;;;;;;;;;;;15.40;99.90;;;14.57;100.00;95759.94;10542898;28;1914;-76
2022/10/24 09:49:21;;;;;;;;;;;15.30;99.90;;;14.62;100.00;95766.31;10540420;28;1727;-76
2022/10/24 09:54:25;;;;;;;;;;;15.30;99.90;;;14.55;100.00;95761.31;10535682;28;1679;-76
2022/10/24 09:59:27;;;;;;;;;;;15.30;99.90;;;14.56;100.00;95758.28;10532662;28;1513;-76
2022/10/24 10:04:30;;;;;;;;;;;15.30;99.90;;;14.66;100.00;95778.16;10540953;28;1906;-76
2022/10/24 10:09:33;;;;;;;;;;;15.40;99.90;;;14.58;100.00;95783.16;10535282;28;1675;-76
2022/10/24 10:14:36;;;;;;;;;;;15.30;99.90;;;14.32;100.00;95779.28;10539943;28;1698;-76
2022/10/24 10:19:39;;;;;;;;;;;15.20;99.90;;;14.31;100.00;95766.84;10541005;28;1132;-76
2022/10/24 10:24:42;;;;;;;;;;;15.10;99.90;;;14.25;100.00;95762.63;10536171;28;1910;-75
2022/10/24 10:29:44;;;;;;;;;;;15.10;99.90;;;14.16;100.00;95761.69;10532192;28;1482;-75
2022/10/24 10:34:47;;;;;;;;;;;15.00;99.90;;;14.26;100.00;95788.56;10539924;28;1217;-76
2022/10/24 10:39:49;;;;;;;;;;;15.00;99.90;;;14.23;100.00;95781.03;10537655;28;1827;-75
2022/10/24 10:44:52;;;;;;;;;;;14.90;99.90;;;14.11;100.00;95778.81;10536050;28;1909;-76
2022/10/24 10:49:55;;;;;;;;;;;14.90;99.90;;;14.17;100.00;95783.03;10539827;28;1152;-77
2022/10/24 10:54:57;;;;;;;;;;;14.90;99.90;;;14.21;100.00;95792.16;10534356;28;1655;-77
2022/10/24 11:00:00;;;;;;;;;;;14.90;99.90;;;14.14;100.00;95793.66;10522644;28;1537;-77
2022/10/24 11:05:09;;;;;;;;;;;14.90;99.90;;;14.02;100.00;95797.59;10540304;28;1971;-77
2022/10/24 11:10:11;;;;;;;;;;;14.70;99.90;;;13.88;100.00;95788.63;10527751;28;1636;-78
2022/10/24 11:15:14;;;;;;;;;;;14.80;99.90;;;13.85;100.00;95797.31;10539113;28;1003;-77
2022/10/24 11:20:17;;;;;;;;;;;14.60;99.90;;;13.74;100.00;95801.25;10532004;28;1695;-76
2022/10/24 11:25:20;;;;;;;;;;;14.50;99.90;;;13.63;100.00;95816.03;10536951;28;1910;-75
2022/10/24 11:30:22;;;;;;;;;;;14.50;99.90;;;13.45;100.00;95810.31;10530006;28;1453;-74
2022/10/24 11:35:25;;;;;;;;;;;14.30;99.90;;;13.34;100.00;95821.53;10539536;28;1165;-74
2022/10/24 11:40:28;;;;;;;;;;;14.20;99.90;;;13.24;100.00;95819.78;10532411;28;1007;-76
2022/10/24 11:45:36;;;;;;;;;;;14.10;99.90;;;13.21;100.00;95825.75;10529521;28;1909;-76
2022/10/24 11:50:38;;;;;;;;;;;14.00;99.90;;;13.35;100.00;95820.44;10537492;28;1116;-76
2022/10/24 11:55:41;;;;;;;;;;;14.10;99.90;;;13.34;100.00;95827.75;10517911;28;1707;-75
2022/10/24 12:00:44;;;;;;;;;;;14.10;99.90;;;13.24;100.00;95835.97;10520466;28;1738;-75
2022/10/24 12:05:47;;;;;;;;;;;14.10;99.90;;;13.31;100.00;95836.44;10532910;28;1909;-76
2022/10/24 12:10:50;;;;;;;;;;;14.10;99.90;;;13.26;100.00;95855.38;10532097;28;1188;-76
2022/10/24 12:15:52;;;;;;;;;;;14.00;99.90;;;13.18;100.00;95846.00;10532511;28;1734;-75
2022/10/24 12:20:55;;;;;;;;;;;14.10;99.90;;;13.17;100.00;95839.00;10536491;28;1152;-74
2022/10/24 12:25:57;;;;;;;;;;;14.00;99.90;;;13.09;100.00;95826.13;10532756;28;1914;-76
2022/10/24 12:31:00;;;;;;;;;;;13.90;99.90;;;13.06;100.00;95834.81;10527280;28;1743;-75
2022/10/24 12:36:02;;;;;;;;;;;13.90;99.90;;;13.12;100.00;95822.06;10532688;28;1446;-76
2022/10/24 12:41:08;;;;;;;;;;;13.90;99.90;;;13.12;100.00;95798.56;10549160;28;1765;-76
2022/10/24 12:46:10;;;;;;;;;;;13.90;99.90;;;13.19;100.00;95822.50;10529231;28;1910;-76
2022/10/24 12:51:14;;;;;;;;;;;13.90;99.90;;;13.25;100.00;95843.78;10534545;28;1145;-74
2022/10/24 12:56:17;;;;;;;;;;;13.90;99.90;;;13.16;100.00;95836.56;10532537;28;1486;-76
2022/10/24 13:01:21;;;;;;;;;;;13.90;99.90;;;13.19;100.00;95834.09;10534382;28;1917;-75
2022/10/24 13:06:23;;;;;;;;;;;13.90;99.90;;;13.23;100.00;95834.34;10535021;28;1913;-74
2022/10/24 13:11:26;;;;;;;;;;;14.00;99.90;;;13.25;100.00;95827.59;10538239;28;1198;-75
2022/10/24 13:16:30;;;;;;;;;;;14.00;99.90;;;13.24;100.00;95825.19;10537490;28;1739;-77
2022/10/24 13:21:33;;;;;;;;;;;14.00;99.90;;;13.21;100.00;95814.94;10534544;28;1121;-74
2022/10/24 13:26:41;;;;;;;;;;;14.10;99.90;;;13.21;100.00;95777.16;10532192;28;1953;-74
2022/10/24 13:31:43;;;;;;;;;;;14.00;99.90;;;13.18;100.00;95778.53;10534458;28;1118;-75
2022/10/24 13:36:46;;;;;;;;;;;14.00;99.90;;;13.15;100.00;95778.28;10530039;28;1478;-74
2022/10/24 13:41:49;;;;;;;;;;;13.90;99.90;;;13.13;100.00;95758.88;10535624;28;1183;-75
2022/10/24 13:46:51;;;;;;;;;;;14.00;99.90;;;13.09;100.00;95752.44;10533281;28;1983;-74
2022/10/24 13:51:56;;;;;;;;;;;13.90;99.90;;;13.11;100.00;95734.09;10536054;28;987;-76
2022/10/24 13:56:59;;;;;;;;;;;13.90;99.90;;;13.10;100.00;95730.56;10516939;28;1704;-74
2022/10/24 14:02:04;;;;;;;;;;;13.90;99.90;;;13.11;100.00;95761.88;10541649;28;1126;-73
2022/10/24 14:07:06;;;;;;;;;;;13.90;99.90;;;13.07;100.00;95728.47;10541515;28;1895;-74
2022/10/24 14:12:09;;;;;;;;;;;13.90;99.90;;;12.98;100.00;95725.63;10542132;28;1199;-74
2022/10/24 14:17:11;;;;;;;;;;;13.90;99.90;;;12.93;100.00;95736.47;10535529;28;1659;-73
2022/10/24 14:22:14;;;;;;;;;;;13.80;99.90;;;12.89;100.00;95759.72;10544083;28;1145;-73
2022/10/24 14:27:17;;;;;;;;;;;13.80;99.90;;;12.88;100.00;95754.59;10527832;28;1914;-73
2022/10/24 14:32:20;;;;;;;;;;;13.80;99.90;;;12.86;100.00;95754.91;10532190;28;1051;-73
2022/10/24 14:37:22;;;;;;;;;;;13.70;99.90;;;12.82;100.00;95744.97;10536980;28;1660;-73
2022/10/24 14:42:25;;;;;;;;;;;13.70;99.90;;;12.83;100.00;95728.50;10540394;28;930;-74
2022/10/24 14:47:28;;;;;;;;;;;13.70;99.90;;;12.85;100.00;95690.44;10535372;28;1906;-75
2022/10/24 14:52:35;;;;;;;;;;;13.70;99.90;;;12.81;100.00;95732.59;10532128;28;1580;-74
2022/10/24 14:57:38;;;;;;;;;;;13.70;99.90;;;12.80;100.00;95721.00;10518502;28;1509;-74
2022/10/24 15:02:41;;;;;;;;;;;13.70;99.90;;;12.76;100.00;95729.94;10549779;28;1121;-74
2022/10/24 15:07:45;;;;;;;;;;;13.70;99.90;;;12.74;100.00;95735.63;10533085;28;1909;-72
2022/10/24 15:13:07;;;;;;;;;;;13.70;99.90;;;12.67;100.00;95740.56;10533006;28;1782;-72
2022/10/24 15:18:11;;;;;;;;;;;13.60;99.90;;;12.69;100.00;95735.69;10539980;28;1275;-74
2022/10/24 15:23:14;;;;;;;;;;;13.60;99.90;;;12.68;100.00;95752.97;10534948;28;1659;-73
2022/10/24 15:28:17;;;;;;;;;;;13.60;99.90;;;12.62;100.00;95730.63;10531035;28;1922;-72
2022/10/24 15:33:19;;;;;;;;;;;13.60;99.90;;;12.63;100.00;95744.91;10537915;28;1140;-73
2022/10/24 15:38:22;;;;;;;;;;;13.50;99.90;;;12.56;100.00;95742.56;10535504;28;1620;-73
2022/10/24 15:43:24;;;;;;;;;;;13.50;99.90;;;12.55;100.00;95753.66;10537743;28;846;-73
2022/10/24 15:48:27;;;;;;;;;;;13.50;99.90;;;12.45;100.00;95749.94;10536560;28;1981;-73
2022/10/24 15:53:30;;;;;;;;;;;13.40;99.90;;;12.42;100.00;95755.94;10538770;28;1300;-72
2022/10/24 15:58:33;;;;;;;;;;;13.40;99.90;;;12.42;100.00;95765.91;10529860;28;1525;-74
2022/10/24 16:03:35;;;;;;;;;;;13.30;99.90;;;12.38;100.00;95756.78;10539191;28;1160;-73
2022/10/24 16:08:38;;;;;;;;;;;13.30;99.90;;;12.38;100.00;95765.66;10527110;28;2017;-71
2022/10/24 16:13:40;;;;;;;;;;;13.30;99.90;;;12.38;100.00;95771.06;10532203;28;1604;-73
2022/10/24 16:18:43;;;;;;;;;;;13.40;99.90;;;12.34;100.00;95770.03;10538774;28;1265;-74
2022/10/24 16:23:46;;;;;;;;;;;13.30;99.90;;;12.33;100.00;95768.41;10533628;28;1600;-73
2022/10/24 16:28:49;;;;;;;;;;;13.20;99.90;;;12.32;100.00;95766.00;10528828;28;1917;-71
2022/10/24 16:33:51;;;;;;;;;;;13.20;99.90;;;12.35;100.00;95770.84;10536456;28;1124;-73
2022/10/24 16:38:54;;;;;;;;;;;13.30;99.90;;;12.24;100.00;95785.50;10534411;28;1695;-74
2022/10/24 16:43:56;;;;;;;;;;;13.20;99.90;;;12.27;100.00;95785.72;10531549;28;1967;-74
2022/10/24 16:48:59;;;;;;;;;;;13.20;99.90;;;12.23;100.00;95782.00;10531289;28;1242;-74
2022/10/24 16:54:02;;;;;;;;;;;13.20;99.90;;;12.20;100.00;95782.53;10527774;28;1679;-72
2022/10/24 16:59:05;;;;;;;;;;;13.20;99.90;;;12.18;100.00;95787.41;10524780;28;1481;-73
2022/10/24 17:04:09;;;;;;;;;;;13.10;99.90;;;12.23;100.00;95773.91;10535173;28;1906;-74
2022/10/24 17:09:18;;;;;;;;;;;13.10;99.90;;;12.17;100.00;95778.53;10523509;28;2034;-74
2022/10/24 17:14:21;;;;;;;;;;;13.10;99.90;;;12.18;100.00;95765.88;10527840;28;1974;-74
2022/10/24 17:19:23;;;;;;;;;;;13.10;99.90;;;12.14;100.00;95770.19;10530956;28;1982;-74
2022/10/24 17:24:26;;;;;;;;;;;13.10;99.90;;;12.13;100.00;95777.47;10530192;28;1914;-73
2022/10/24 17:29:28;;;;;;;;;;;13.10;99.90;;;12.10;100.00;95796.13;10531236;28;1446;-73
2022/10/24 17:34:31;;;;;;;;;;;13.10;99.90;;;12.11;100.00;95797.72;10538578;28;1154;-73
2022/10/24 17:39:34;;;;;;;;;;;13.10;99.90;;;12.08;100.00;95798.28;10541084;28;1504;-73
2022/10/24 17:44:39;;;;;;;;;;;13.00;99.90;;;12.12;100.00;95804.72;10518983;28;1902;-74
2022/10/24 17:49:43;;;;;;;;;;;13.10;99.90;;;12.08;100.00;95798.28;10537695;28;1234;-75
2022/10/24 17:54:46;;;;;;;;;;;13.00;99.90;;;12.13;100.00;95801.72;10531172;28;1406;-76
2022/10/24 17:59:48;;;;;;;;;;;13.10;99.90;;;12.18;100.00;95790.91;10534860;28;1422;-74
2022/10/24 18:04:51;;;;;;;;;;;13.10;99.90;;;12.16;100.00;95787.72;10540612;28;1910;-76
2022/10/24 18:09:59;;;;;;;;;;;13.10;99.90;;;12.18;100.00;95795.50;10538480;28;1680;-72
2022/10/24 18:15:01;;;;;;;;;;;13.10;99.90;;;12.14;100.00;95791.75;10534278;28;1707;-73
2022/10/24 18:20:04;;;;;;;;;;;13.10;99.90;;;12.16;100.00;95787.72;10535511;28;1164;-73
2022/10/24 18:25:07;;;;;;;;;;;13.10;99.90;;;12.21;100.00;95786.84;10533562;28;1971;-74
2022/10/24 18:30:10;;;;;;;;;;;13.10;99.90;;;12.13;100.00;95780.19;10523591;28;1870;-73
2022/10/24 18:35:12;;;;;;;;;;;13.10;99.90;;;12.08;100.00;95782.91;10527015;28;1410;-74
2022/10/24 18:40:15;;;;;;;;;;;13.10;99.90;;;11.94;100.00;95779.25;10530663;28;1659;-73
2022/10/24 18:45:18;;;;;;;;;;;12.90;99.90;;;11.95;100.00;95772.78;10534789;28;1971;-75
2022/10/24 18:50:23;;;;;;;;;;;12.80;99.90;;;12.03;100.00;95784.88;10530179;28;1118;-73
2022/10/24 18:55:26;;;;;;;;;;;12.90;99.90;;;12.01;100.00;95781.63;10536340;28;1890;-74
2022/10/24 19:00:30;;;;;;;;;;;12.90;99.90;;;12.03;100.00;95785.66;10535953;28;1516;-73
2022/10/24 19:05:32;;;;;;;;;;;12.90;99.90;;;12.09;100.00;95789.13;10535764;28;1910;-72
2022/10/24 19:10:35;;;;;;;;;;;12.90;99.90;;;12.08;100.00;95763.25;10536585;28;1125;-71
2022/10/24 19:15:38;;;;;;;;;;;13.00;99.90;;;12.08;100.00;95749.78;10527302;28;1438;-74
2022/10/24 19:20:41;;;;;;;;;;;12.90;99.90;;;12.06;100.00;95754.66;10539360;28;837;-72
2022/10/24 19:25:44;;;;;;;;;;;12.90;99.90;;;11.99;100.00;95749.59;10532915;28;1977;-73
2022/10/24 19:30:47;;;;;;;;;;;12.90;99.90;;;11.98;100.00;95757.97;10522660;28;1624;-72
2022/10/24 19:35:49;;;;;;;;;;;12.90;99.90;;;11.99;100.00;95754.97;10536077;28;1165;-74
2022/10/24 19:40:53;;;;;;;;;;;12.80;99.90;;;11.97;100.00;95767.13;10534839;28;1163;-73
2022/10/24 19:45:58;;;;;;;;;;;12.90;99.90;;;11.87;100.00;95763.41;10534820;28;1905;-72
2022/10/24 19:51:21;;;;;;;;;;;12.90;99.90;;;11.86;100.00;95761.03;10530343;28;1711;-73
2022/10/24 19:56:25;;;;;;;;;;;12.80;99.90;;;11.87;100.00;95752.66;10529449;28;1580;-72
2022/10/24 20:01:29;;;;;;;;;;;12.70;99.90;;;11.82;100.00;95755.38;10543641;28;1170;-74
2022/10/24 20:06:33;;;;;;;;;;;12.80;99.90;;;11.80;100.00;95768.31;10534423;28;1909;-74
2022/10/24 20:11:35;;;;;;;;;;;12.80;99.90;;;11.81;100.00;95767.25;10532266;28;1169;-75
2022/10/24 20:16:38;;;;;;;;;;;12.70;99.90;;;11.84;100.00;95772.06;10538705;28;1778;-75
2022/10/24 20:21:41;;;;;;;;;;;12.80;99.90;;;11.83;100.00;95775.88;10543294;28;1326;-73
2022/10/24 20:26:45;;;;;;;;;;;12.80;99.90;;;11.84;100.00;95779.34;10527119;28;1887;-73
2022/10/24 20:31:48;;;;;;;;;;;12.70;99.90;;;11.77;100.00;95786.91;10530925;28;1161;-73
2022/10/24 20:36:51;;;;;;;;;;;12.70;99.90;;;11.73;100.00;95781.28;10532188;28;1536;-74
2022/10/24 20:41:53;;;;;;;;;;;12.70;99.90;;;11.45;100.00;95774.75;10533535;28;1255;-73
2022/10/24 20:46:57;;;;;;;;;;;12.60;99.90;;;11.27;100.00;95780.78;10535021;28;1910;-72
2022/10/24 20:52:00;;;;;;;;;;;12.50;99.90;;;11.16;100.00;95785.38;10527682;28;1632;-72
2022/10/24 20:57:03;;;;;;;;;;;12.30;99.90;;;11.05;100.00;95794.59;10527396;28;1458;-72
2022/10/24 21:02:06;;;;;;;;;;;12.10;99.90;;;10.97;100.00;95812.09;10530522;28;1118;-73
2022/10/24 21:07:09;;;;;;;;;;;12.10;99.90;;;11.01;100.00;95815.88;10533652;28;1980;-73
2022/10/24 21:12:12;;;;;;;;;;;12.00;99.90;;;11.20;100.00;95816.06;10541522;28;1121;-73
2022/10/24 21:17:15;;;;;;;;;;;12.00;99.90;;;11.29;100.00;95806.31;10536983;28;1636;-72
2022/10/24 21:22:18;;;;;;;;;;;12.10;99.90;;;11.25;100.00;95813.31;10540532;28;1232;-73
2022/10/24 21:27:20;;;;;;;;;;;12.20;99.90;;;11.16;100.00;95814.19;10530597;28;1967;-71
2022/10/24 21:32:23;;;;;;;;;;;12.20;99.90;;;11.22;100.00;95819.25;10540449;28;1235;-72
2022/10/24 21:37:25;;;;;;;;;;;12.10;99.90;;;11.33;100.00;95828.91;10538669;28;1605;-72
2022/10/24 21:42:28;;;;;;;;;;;12.20;99.90;;;11.46;100.00;95837.47;10540428;28;1283;-72
2022/10/24 21:47:31;;;;;;;;;;;12.30;99.90;;;11.54;100.00;95836.88;10539530;28;1981;-72
2022/10/24 21:52:36;;;;;;;;;;;12.30;99.90;;;11.40;100.00;95833.19;10537499;28;1584;-72
2022/10/24 21:57:39;;;;;;;;;;;12.40;99.90;;;11.21;100.00;95849.16;10539315;28;1465;-72
2022/10/24 22:02:42;;;;;;;;;;;12.30;99.90;;;11.22;100.00;95854.25;10541341;28;1156;-73
2022/10/24 22:07:45;;;;;;;;;;;12.20;99.90;;;11.26;100.00;95860.69;10524907;28;1984;-75
2022/10/24 22:12:51;;;;;;;;;;;12.20;99.90;;;11.44;100.00;95856.56;10539043;28;1105;-73
2022/10/24 22:17:54;;;;;;;;;;;12.20;99.90;;;11.45;100.00;95862.75;10533943;28;1703;-73
2022/10/24 22:22:56;;;;;;;;;;;12.30;99.90;;;11.42;100.00;95869.50;10541737;28;1111;-71
2022/10/24 22:27:59;;;;;;;;;;;12.40;99.90;;;11.40;100.00;95881.63;10527268;28;1909;-73
2022/10/24 22:33:02;;;;;;;;;;;12.40;99.90;;;11.38;100.00;95889.97;10543166;28;1117;-72
2022/10/24 22:38:04;;;;;;;;;;;12.40;99.90;;;11.16;100.00;95898.38;10535730;28;1564;-74
2022/10/24 22:43:07;;;;;;;;;;;12.30;99.90;;;10.79;100.00;95913.00;10539143;28;1317;-73
2022/10/24 22:48:13;;;;;;;;;;;12.00;99.90;;;10.55;100.00;95925.38;10532910;28;1910;-73
2022/10/24 22:53:16;;;;;;;;;;;11.70;99.90;;;10.27;100.00;95943.66;10534792;28;1584;-73
2022/10/24 22:58:18;;;;;;;;;;;11.60;99.90;;;10.17;100.00;95959.72;10529803;28;1505;-73